createdAt,value
2019-04-20T00:01:20.007Z,7.93
2019-04-20T00:03:45.541Z,8.17
2019-04-20T00:06:15.214Z,7.40
2019-04-20T00:08:44.677Z,8.23
2019-04-20T00:11:24.845Z,7.80
2019-04-20T00:13:52.557Z,7.43
2019-04-20T00:16:14.784Z,7.07
2019-04-20T00:18:48.875Z,7.80
2019-04-20T00:21:31.141Z,7.50
2019-04-20T00:24:07.567Z,7.27
2019-04-20T00:26:59.627Z,7.70
2019-04-20T00:29:21.361Z,7.80
2019-04-20T00:31:45.902Z,8.50
2019-04-20T00:34:11.963Z,8.13
2019-04-20T00:36:33.095Z,8.00
2019-04-20T00:39:05.956Z,8.13
2019-04-20T00:41:34.072Z,7.90
2019-04-20T00:44:08.323Z,7.20
2019-04-20T00:46:48.634Z,8.57
2019-04-20T00:49:17.202Z,8.10
2019-04-20T00:51:52.555Z,9.00
2019-04-20T00:54:03.919Z,7.57
2019-04-20T00:56:33.036Z,8.27
2019-04-20T00:59:12.972Z,7.97
2019-04-20T01:01:52.624Z,9.03
2019-04-20T01:04:20.214Z,8.50
2019-04-20T01:07:01.578Z,8.57
2019-04-20T01:09:24.719Z,8.40
2019-04-20T01:11:54.390Z,9.00
2019-04-20T01:14:30.897Z,8.10
2019-04-20T01:16:59.972Z,7.87
2019-04-20T01:19:23.319Z,8.43
2019-04-20T01:22:00.038Z,9.43
2019-04-20T01:24:30.874Z,9.40
2019-04-20T01:26:55.995Z,8.10
2019-04-20T01:29:34.930Z,8.00
2019-04-20T01:32:05.750Z,8.87
2019-04-20T01:34:35.695Z,9.33
2019-04-20T01:37:09.543Z,8.43
2019-04-20T01:39:31.900Z,8.10
2019-04-20T01:41:54.021Z,8.43
2019-04-20T01:44:26.659Z,8.47
2019-04-20T01:46:58.356Z,8.53
2019-04-20T01:49:28.651Z,8.00
2019-04-20T01:52:03.807Z,8.53
2019-04-20T01:54:41.480Z,9.20
2019-04-20T01:57:04.651Z,8.27
2019-04-20T01:59:49.338Z,8.50
2019-04-20T02:02:14.071Z,9.27
2019-04-20T02:04:51.533Z,8.37
2019-04-20T02:07:28.533Z,9.00
2019-04-20T02:09:56.128Z,8.63
2019-04-20T02:12:24.194Z,8.50
2019-04-20T02:14:55.254Z,8.70
2019-04-20T02:17:29.227Z,8.77
2019-04-20T02:20:12.576Z,8.70
2019-04-20T02:22:37.268Z,9.33
2019-04-20T02:24:50.943Z,9.70
2019-04-20T02:27:26.900Z,9.70
2019-04-20T02:30:14.339Z,9.30
2019-04-20T02:32:55.629Z,9.20
2019-04-20T02:35:36.571Z,9.20
2019-04-20T02:40:38.858Z,7.50
2019-04-20T02:43:11.889Z,8.30
2019-04-20T02:45:40.327Z,8.70
2019-04-20T02:48:02.836Z,8.07
2019-04-20T02:53:15.630Z,7.93
2019-04-20T02:55:38.124Z,8.93
2019-04-20T02:58:04.712Z,9.63
2019-04-20T03:00:29.701Z,8.80
2019-04-20T03:02:46.251Z,8.57
2019-04-20T03:05:16.460Z,8.70
2019-04-20T03:07:57.238Z,8.17
2019-04-20T03:10:39.691Z,9.17
2019-04-20T03:13:05.385Z,9.53
2019-04-20T03:15:32.899Z,9.47
2019-04-20T03:18:03.680Z,8.77
2019-04-20T03:20:36.591Z,8.97
2019-04-20T03:23:18.653Z,8.97
2019-04-20T03:25:55.512Z,9.20
2019-04-20T03:28:18.282Z,9.53
2019-04-20T03:31:33.328Z,9.40
2019-04-20T03:33:44.052Z,9.93
2019-04-20T03:36:09.347Z,10.23
2019-04-20T03:38:19.856Z,10.07
2019-04-20T03:40:46.113Z,9.77
2019-04-20T03:43:03.876Z,9.70
2019-04-20T03:45:43.663Z,8.87
2019-04-20T03:48:12.676Z,9.40
2019-04-20T03:50:55.371Z,9.60
2019-04-20T03:53:26.257Z,9.80
2019-04-20T03:55:56.683Z,9.60
2019-04-20T03:58:29.088Z,9.60
2019-04-20T04:01:13.333Z,10.00
2019-04-20T04:04:07.873Z,9.63
2019-04-20T04:06:12.667Z,11.63
2019-04-20T04:08:38.034Z,14.10
2019-04-20T04:11:23.914Z,10.87
2019-04-20T04:13:31.456Z,11.43
2019-04-20T04:16:04.836Z,11.07
2019-04-20T04:18:37.304Z,9.53
2019-04-20T04:21:07.659Z,10.63
2019-04-20T04:23:56.164Z,9.90
2019-04-20T04:26:18.237Z,11.23
2019-04-20T04:28:48.996Z,9.33
2019-04-20T04:31:20.220Z,10.07
2019-04-20T04:34:06.228Z,9.23
2019-04-20T04:36:17.837Z,9.50
2019-04-20T04:38:55.198Z,10.97
2019-04-20T04:41:23.974Z,10.47
2019-04-20T04:43:49.953Z,9.97
2019-04-20T04:46:03.898Z,9.97
2019-04-20T04:48:37.294Z,10.83
2019-04-20T04:51:10.421Z,11.67
2019-04-20T04:53:44.222Z,9.90
2019-04-20T04:56:07.351Z,10.07
2019-04-20T04:58:34.032Z,10.10
2019-04-20T05:01:12.686Z,10.10
2019-04-20T05:03:58.276Z,13.67
2019-04-20T05:06:25.005Z,11.70
2019-04-20T05:08:45.416Z,11.37
2019-04-20T05:11:09.010Z,10.97
2019-04-20T05:13:47.946Z,11.00
2019-04-20T05:16:33.704Z,9.37
2019-04-20T05:19:11.544Z,10.50
2019-04-20T05:21:26.126Z,10.90
2019-04-20T05:24:00.659Z,11.10
2019-04-20T05:26:42.425Z,9.97
2019-04-20T05:29:01.387Z,10.37
2019-04-20T05:31:30.846Z,10.50
2019-04-20T05:34:30.865Z,10.50
2019-04-20T05:36:46.183Z,11.20
2019-04-20T05:39:21.326Z,11.23
2019-04-20T05:41:41.744Z,10.80
2019-04-20T05:44:08.510Z,11.43
2019-04-20T05:46:47.905Z,11.90
2019-04-20T05:49:23.374Z,11.70
2019-04-20T05:51:43.286Z,11.20
2019-04-20T05:54:19.022Z,11.37
2019-04-20T05:56:45.692Z,12.67
2019-04-20T05:59:15.030Z,12.03
2019-04-20T06:01:52.813Z,12.67
2019-04-20T06:04:12.828Z,12.47
2019-04-20T06:06:49.362Z,12.13
2019-04-20T06:09:26.343Z,19.43
2019-04-20T06:12:06.084Z,15.97
2019-04-20T06:14:09.114Z,16.40
2019-04-20T06:17:04.850Z,14.00
2019-04-20T06:19:39.651Z,16.07
2019-04-20T06:22:10.273Z,26.20
2019-04-20T06:24:49.139Z,23.00
2019-04-20T06:27:11.408Z,19.00
2019-04-20T06:29:41.344Z,18.37
2019-04-20T06:32:15.727Z,17.23
2019-04-20T06:34:37.927Z,20.80
2019-04-20T06:37:05.780Z,14.57
2019-04-20T06:39:44.740Z,28.63
2019-04-20T06:44:57.835Z,19.13
2019-04-20T06:47:16.332Z,15.27
2019-04-20T06:49:39.341Z,15.33
2019-04-20T06:52:25.880Z,15.93
2019-04-20T06:55:03.449Z,14.60
2019-04-20T06:57:37.256Z,15.83
2019-04-20T07:00:07.170Z,16.30
2019-04-20T07:02:48.604Z,15.10
2019-04-20T07:05:08.502Z,15.70
2019-04-20T07:07:38.796Z,33.03
2019-04-20T07:10:14.780Z,25.47
2019-04-20T07:12:39.823Z,20.20
2019-04-20T07:14:58.842Z,19.83
2019-04-20T07:20:21.418Z,15.60
2019-04-20T07:23:11.385Z,14.13
2019-04-20T07:25:34.501Z,15.83
2019-04-20T07:28:03.046Z,15.47
2019-04-20T07:30:30.602Z,16.23
2019-04-20T07:35:34.418Z,17.10
2019-04-20T07:38:18.243Z,15.80
2019-04-20T07:40:30.202Z,17.10
2019-04-20T07:43:01.569Z,19.20
2019-04-20T07:50:26.733Z,18.70
2019-04-20T07:52:54.419Z,17.57
2019-04-20T07:57:57.711Z,16.83
2019-04-20T08:00:44.255Z,15.67
2019-04-20T08:03:29.585Z,15.93
2019-04-20T08:05:46.638Z,15.33
2019-04-20T08:08:22.750Z,16.83
2019-04-20T08:10:54.307Z,16.77
2019-04-20T08:13:32.010Z,16.97
2019-04-20T08:15:58.444Z,16.10
2019-04-20T08:20:59.601Z,14.13
2019-04-20T08:23:44.603Z,14.67
2019-04-20T08:25:46.797Z,13.13
2019-04-20T08:28:16.475Z,18.80
2019-04-20T08:31:06.670Z,11.93
2019-04-20T08:33:55.011Z,11.87
2019-04-20T08:36:19.938Z,9.90
2019-04-20T08:41:15.305Z,10.47
2019-04-20T08:43:53.560Z,9.40
2019-04-20T08:46:20.515Z,10.07
2019-04-20T08:48:52.264Z,9.00
2019-04-20T08:51:22.660Z,9.50
2019-04-20T08:53:46.993Z,8.93
2019-04-20T08:56:10.930Z,10.27
2019-04-20T08:58:29.624Z,9.40
2019-04-20T09:01:03.135Z,8.20
2019-04-20T09:03:32.558Z,9.03
2019-04-20T09:06:05.565Z,8.40
2019-04-20T09:08:42.301Z,8.63
2019-04-20T09:11:14.386Z,8.13
2019-04-20T09:13:38.315Z,8.23
2019-04-20T09:16:00.350Z,8.30
2019-04-20T09:18:41.778Z,8.87
2019-04-20T09:21:08.531Z,8.67
2019-04-20T09:23:58.969Z,8.80
2019-04-20T09:26:35.452Z,7.30
2019-04-20T09:28:58.167Z,8.03
2019-04-20T09:31:35.937Z,8.10
2019-04-20T09:34:11.449Z,7.80
2019-04-20T09:36:46.158Z,7.80
2019-04-20T09:39:27.167Z,8.00
2019-04-20T09:42:01.282Z,8.40
2019-04-20T09:44:33.680Z,10.33
2019-04-20T09:46:59.919Z,8.00
2019-04-20T09:49:38.787Z,7.67
2019-04-20T09:52:10.902Z,7.40
2019-04-20T09:54:45.978Z,7.30
2019-04-20T09:57:22.646Z,9.03
2019-04-20T09:59:44.650Z,8.07
2019-04-20T10:02:06.792Z,12.53
2019-04-20T10:04:29.108Z,7.50
2019-04-20T10:07:00.052Z,8.03
2019-04-20T10:09:32.600Z,7.33
2019-04-20T10:11:59.553Z,8.03
2019-04-20T10:14:28.907Z,8.10
2019-04-20T10:16:57.965Z,14.20
2019-04-20T10:19:30.901Z,8.10
2019-04-20T10:21:57.005Z,7.40
2019-04-20T10:24:26.484Z,7.93
2019-04-20T10:26:55.033Z,23.57
2019-04-20T10:29:23.717Z,13.20
2019-04-20T10:31:57.184Z,11.43
2019-04-20T10:34:24.070Z,8.63
2019-04-20T10:36:55.514Z,7.37
2019-04-20T10:39:28.808Z,9.83
2019-04-20T10:42:00.459Z,7.37
2019-04-20T10:44:29.179Z,7.00
2019-04-20T10:46:58.797Z,7.40
2019-04-20T10:49:27.274Z,7.30
2019-04-20T10:51:55.834Z,8.50
2019-04-20T10:54:24.750Z,10.77
2019-04-20T10:56:53.297Z,8.47
2019-04-20T10:59:21.859Z,7.70
2019-04-20T11:01:51.695Z,7.40
2019-04-20T11:04:20.889Z,10.60
2019-04-20T11:06:50.336Z,7.60
2019-04-20T11:09:18.876Z,7.47
2019-04-20T11:11:48.257Z,7.23
2019-04-20T11:14:25.757Z,10.90
2019-04-20T11:16:46.923Z,7.20
2019-04-20T11:19:15.635Z,7.03
2019-04-20T11:21:44.316Z,9.17
2019-04-20T11:24:14.228Z,7.53
2019-04-20T11:26:43.874Z,7.20
2019-04-20T11:29:13.831Z,7.37
2019-04-20T11:31:47.764Z,10.60
2019-04-20T11:34:14.986Z,7.53
2019-04-20T11:36:43.388Z,7.40
2019-04-20T11:39:12.698Z,7.20
2019-04-20T11:41:41.529Z,8.07
2019-04-20T11:44:10.066Z,7.90
2019-04-20T11:46:38.862Z,9.87
2019-04-20T11:49:07.907Z,6.67
2019-04-20T11:51:37.342Z,6.80
2019-04-20T11:54:06.170Z,7.53
2019-04-20T11:56:38.859Z,9.60
2019-04-20T11:59:05.310Z,7.73
2019-04-20T12:01:44.098Z,7.90
2019-04-20T12:04:20.454Z,7.03
2019-04-20T12:06:37.253Z,6.90
2019-04-20T12:09:08.762Z,7.73
2019-04-20T12:11:53.439Z,7.90
2019-04-20T12:14:07.431Z,6.80
2019-04-20T12:16:35.908Z,7.93
2019-04-20T12:19:04.596Z,6.90
2019-04-20T12:21:33.098Z,7.33
2019-04-20T12:24:02.457Z,8.20
2019-04-20T12:26:31.111Z,8.50
2019-04-20T12:28:59.603Z,7.50
2019-04-20T12:31:29.321Z,8.83
2019-04-20T12:33:58.164Z,9.63
2019-04-20T12:36:28.038Z,8.93
2019-04-20T12:38:57.200Z,11.07
2019-04-20T12:41:37.601Z,9.00
2019-04-20T12:43:56.107Z,8.63
2019-04-20T12:46:26.144Z,8.10
2019-04-20T12:48:55.679Z,6.97
2019-04-20T12:51:31.372Z,8.60
2019-04-20T12:53:56.319Z,8.43
2019-04-20T12:56:26.547Z,10.78
2019-04-20T12:58:55.901Z,7.65
2019-04-20T13:01:25.861Z,7.22
2019-04-20T13:03:55.418Z,6.65
2019-04-20T13:06:25.810Z,7.30
2019-04-20T13:08:58.418Z,7.45
2019-04-20T13:11:28.678Z,6.40
2019-04-20T13:14:24.208Z,6.45
2019-04-20T13:16:53.998Z,6.75
2019-04-20T13:19:24.160Z,7.05
2019-04-20T13:21:53.239Z,6.80
2019-04-20T13:24:23.018Z,6.80
2019-04-20T13:26:53.053Z,7.15
2019-04-20T13:29:22.683Z,6.83
2019-04-20T13:31:53.727Z,6.25
2019-04-20T13:34:22.599Z,6.75
2019-04-20T13:36:52.449Z,6.62
2019-04-20T13:39:20.916Z,5.97
2019-04-20T13:42:00.335Z,6.47
2019-04-20T13:44:22.053Z,6.47
2019-04-20T13:46:52.189Z,6.53
2019-04-20T13:49:21.311Z,7.35
2019-04-20T13:51:50.850Z,7.50
2019-04-20T13:54:24.539Z,5.92
2019-04-20T13:56:51.972Z,7.00
2019-04-20T13:59:39.922Z,19.20
2019-04-20T14:02:22.764Z,7.40
2019-04-20T14:04:52.944Z,8.80
2019-04-20T14:07:23.778Z,10.57
2019-04-20T14:12:38.846Z,19.23
2019-04-20T14:15:07.478Z,11.90
2019-04-20T14:17:39.226Z,9.23
2019-04-20T14:20:13.307Z,7.53
2019-04-20T14:22:38.913Z,7.67
2019-04-20T14:25:08.961Z,7.50
2019-04-20T14:27:37.567Z,7.20
2019-04-20T14:30:06.747Z,6.63
2019-04-20T14:32:36.695Z,7.17
2019-04-20T14:35:07.154Z,7.10
2019-04-20T14:37:36.045Z,6.53
2019-04-20T14:40:08.199Z,6.50
2019-04-20T14:42:44.794Z,7.17
2019-04-20T14:45:10.861Z,8.63
2019-04-20T14:47:39.602Z,7.17
2019-04-20T14:50:09.768Z,8.23
2019-04-20T14:52:43.829Z,7.17
2019-04-20T14:55:17.302Z,6.67
2019-04-20T14:57:45.831Z,9.57
2019-04-20T15:00:19.430Z,9.17
2019-04-20T15:02:47.997Z,9.90
2019-04-20T15:05:17.060Z,7.80
2019-04-20T15:07:46.770Z,16.83
2019-04-20T15:10:16.158Z,7.90
2019-04-20T15:12:49.963Z,7.73
2019-04-20T15:15:15.088Z,7.80
2019-04-20T15:17:45.822Z,7.17
2019-04-20T15:20:28.074Z,7.20
2019-04-20T15:22:59.277Z,6.77
2019-04-20T15:25:27.954Z,7.00
2019-04-20T15:27:56.482Z,7.00
2019-04-20T15:33:12.689Z,8.43
2019-04-20T15:35:41.988Z,8.40
2019-04-20T15:38:11.195Z,8.40
2019-04-20T15:40:39.872Z,9.27
2019-04-20T15:43:15.380Z,7.70
2019-04-20T15:45:39.156Z,8.67
2019-04-20T15:48:14.286Z,8.57
2019-04-20T15:50:43.713Z,8.00
2019-04-20T15:53:23.863Z,7.90
2019-04-20T15:56:29.061Z,7.83
2019-04-20T16:02:57.132Z,7.23
2019-04-20T16:05:41.074Z,9.10
2019-04-20T16:08:32.403Z,8.70
2019-04-20T16:11:01.475Z,8.00
2019-04-20T16:13:37.500Z,8.00
2019-04-20T16:16:01.501Z,7.33
2019-04-20T16:18:30.776Z,8.47
2019-04-20T16:21:06.328Z,8.13
2019-04-20T16:23:32.428Z,7.67
2019-04-20T16:26:17.293Z,9.23
2019-04-20T16:28:46.183Z,8.13
2019-04-20T16:31:15.763Z,8.70
2019-04-20T16:33:44.362Z,9.10
2019-04-20T16:36:14.426Z,8.80
2019-04-20T16:38:43.550Z,9.10
2019-04-20T16:41:12.569Z,7.50
2019-04-20T16:43:44.167Z,8.70
2019-04-20T16:49:03.029Z,8.27
2019-04-20T16:51:31.533Z,8.40
2019-04-20T16:53:59.960Z,9.10
2019-04-20T16:56:28.743Z,8.37
2019-04-20T16:59:03.020Z,8.30
2019-04-20T17:01:29.614Z,8.63
2019-04-20T17:04:19.138Z,7.90
2019-04-20T17:09:37.874Z,8.50
2019-04-20T17:13:09.876Z,7.90
2019-04-20T17:14:37.878Z,8.07
2019-04-20T17:17:09.880Z,8.70
2019-04-20T17:19:39.896Z,8.50
2019-04-20T17:22:09.616Z,8.53
2019-04-20T17:24:55.677Z,12.33
2019-04-20T17:27:42.157Z,13.50
2019-04-20T17:37:24.573Z,15.63
2019-04-20T17:40:12.608Z,10.33
2019-04-20T17:50:29.329Z,10.87
2019-04-20T17:52:59.562Z,17.03
2019-04-20T17:55:35.959Z,12.33
2019-04-20T18:00:59.581Z,11.43
2019-04-20T18:04:05.865Z,16.30
2019-04-20T18:06:34.881Z,15.17
2019-04-20T18:11:44.648Z,10.10
2019-04-20T18:14:28.883Z,16.20
2019-04-20T18:17:15.373Z,13.87
2019-04-20T18:19:49.027Z,9.37
2019-04-20T18:22:42.964Z,10.93
2019-04-20T18:26:01.117Z,14.33
2019-04-20T18:28:53.809Z,10.87
2019-04-20T18:38:30.592Z,16.77
2019-04-20T18:41:04.590Z,12.47
2019-04-20T18:43:42.640Z,10.43
2019-04-20T18:47:33.070Z,10.20
2019-04-20T18:52:07.480Z,10.20
2019-04-20T18:57:49.156Z,9.77
2019-04-20T19:00:42.199Z,9.67
2019-04-20T19:06:23.532Z,10.30
2019-04-20T19:16:07.889Z,10.80
2019-04-20T19:19:28.624Z,10.20
2019-04-20T19:22:17.343Z,10.20
2019-04-20T19:24:53.861Z,11.03
2019-04-20T19:30:39.854Z,10.83
2019-04-20T19:34:11.561Z,10.67
2019-04-20T19:40:10.757Z,11.90
2019-04-20T19:42:48.976Z,12.37
2019-04-20T19:45:42.026Z,13.00
2019-04-20T19:48:04.371Z,12.60
2019-04-20T19:51:08.468Z,12.37
2019-04-20T19:53:51.034Z,13.13
2019-04-20T19:56:10.908Z,13.90
2019-04-20T19:58:57.503Z,12.83
2019-04-20T20:01:11.668Z,12.53
2019-04-20T20:06:45.356Z,12.90
2019-04-20T20:12:09.286Z,13.63
2019-04-20T20:14:39.722Z,13.53
2019-04-20T20:17:27.350Z,14.30
2019-04-20T20:20:04.190Z,13.40
2019-04-20T20:22:19.412Z,13.10
2019-04-20T20:24:36.857Z,13.43
2019-04-20T20:27:12.902Z,13.97
2019-04-20T20:29:41.285Z,13.67
2019-04-20T20:32:17.806Z,14.43
2019-04-20T20:34:42.181Z,14.47
2019-04-20T20:37:11.110Z,14.73
2019-04-20T20:39:39.026Z,14.27
2019-04-20T20:42:19.013Z,14.77
2019-04-20T20:44:45.672Z,15.60
2019-04-20T20:47:31.325Z,16.40
2019-04-20T20:50:02.859Z,14.70
2019-04-20T20:52:28.347Z,13.53
2019-04-20T20:54:52.261Z,14.67
2019-04-20T20:57:13.241Z,14.33
2019-04-20T20:59:47.974Z,14.00
2019-04-20T21:02:18.256Z,13.93
2019-04-20T21:04:39.518Z,13.80
2019-04-20T21:07:08.828Z,13.57
2019-04-20T21:09:37.620Z,14.63
2019-04-20T21:12:10.874Z,13.47
2019-04-20T21:14:40.155Z,14.13
2019-04-20T21:17:13.182Z,14.03
2019-04-20T21:19:53.724Z,13.40
2019-04-20T21:22:16.506Z,14.63
2019-04-20T21:24:47.061Z,13.50
2019-04-20T21:27:18.217Z,15.23
2019-04-20T21:29:51.508Z,14.00
2019-04-20T21:32:18.079Z,14.13
2019-04-20T21:34:51.842Z,14.47
2019-04-20T21:37:19.454Z,13.57
2019-04-20T21:39:53.448Z,14.20
2019-04-20T21:42:19.825Z,14.60
2019-04-20T21:44:50.074Z,13.90
2019-04-20T21:47:27.287Z,15.13
2019-04-20T21:49:57.513Z,15.40
2019-04-20T21:52:24.909Z,15.30
2019-04-20T21:54:47.939Z,14.30
2019-04-20T21:57:18.026Z,17.30
2019-04-20T21:59:50.247Z,14.10
2019-04-20T22:02:21.986Z,14.83
2019-04-20T22:04:47.364Z,13.87
2019-04-20T22:07:16.529Z,14.57
2019-04-20T22:09:48.895Z,14.33
2019-04-20T22:12:15.988Z,13.60
2019-04-20T22:14:48.733Z,14.10
2019-04-20T22:17:22.403Z,15.03
2019-04-20T22:19:58.619Z,14.60
2019-04-20T22:22:30.569Z,14.80
2019-04-20T22:25:01.502Z,16.70
2019-04-20T22:27:21.085Z,15.10
2019-04-20T22:29:46.154Z,16.60
2019-04-20T22:32:18.357Z,15.30
2019-04-20T22:34:47.508Z,15.27
2019-04-20T22:37:21.242Z,15.70
2019-04-20T22:39:52.911Z,14.50
2019-04-20T22:42:21.633Z,15.37
2019-04-20T22:44:56.642Z,14.80
2019-04-20T22:47:25.363Z,16.07
2019-04-20T22:50:12.518Z,15.13
2019-04-20T22:52:34.763Z,16.17
2019-04-20T22:55:13.573Z,15.53
2019-04-20T22:57:36.117Z,16.50
2019-04-20T22:59:59.631Z,15.10
2019-04-20T23:02:23.601Z,15.67
2019-04-20T23:04:52.964Z,14.77
2019-04-20T23:07:22.905Z,15.60
2019-04-20T23:09:55.001Z,15.97
2019-04-20T23:12:23.765Z,15.63
2019-04-20T23:14:52.326Z,16.57
2019-04-20T23:17:28.395Z,15.20
2019-04-20T23:19:56.211Z,14.70
2019-04-20T23:22:21.267Z,15.43
2019-04-20T23:24:51.052Z,15.77
2019-04-20T23:27:24.542Z,14.90
2019-04-20T23:29:51.044Z,15.20
2019-04-20T23:32:21.302Z,15.03
2019-04-20T23:34:57.598Z,15.00
2019-04-20T23:37:27.839Z,15.30
2019-04-20T23:39:52.576Z,15.10
2019-04-20T23:42:32.973Z,19.87
2019-04-20T23:45:28.364Z,17.53
2019-04-20T23:48:03.028Z,15.60
2019-04-20T23:50:46.540Z,15.67
2019-04-20T23:53:13.906Z,15.50
2019-04-20T23:55:29.760Z,15.20
2019-04-20T23:58:03.227Z,15.77
